sensor_id;sensor_type;location;lat;lon;timestamp;P1;durP1;ratioP1;P2;durP2;ratioP2
30613;SDS011;17381;51.690;5.270;2023-04-30T00:02:12;9.45;;;6.05;;
30613;SDS011;17381;51.690;5.270;2023-04-30T00:05:12;12.88;;;7.15;;
30613;SDS011;17381;51.690;5.270;2023-04-30T00:07:49;10.68;;;6.15;;
30613;SDS011;17381;51.690;5.270;2023-04-30T00:10:44;12.52;;;6.30;;
30613;SDS011;17381;51.690;5.270;2023-04-30T00:13:16;12.60;;;6.07;;
30613;SDS011;17381;51.690;5.270;2023-04-30T00:16:08;11.18;;;6.15;;
30613;SDS011;17381;51.690;5.270;2023-04-30T00:18:55;12.18;;;6.93;;
30613;SDS011;17381;51.690;5.270;2023-04-30T00:21:36;12.82;;;6.75;;
30613;SDS011;17381;51.690;5.270;2023-04-30T00:24:39;9.73;;;6.05;;
30613;SDS011;17381;51.690;5.270;2023-04-30T00:35:29;13.43;;;6.22;;
30613;SDS011;17381;51.690;5.270;2023-04-30T00:45:45;11.23;;;6.97;;
30613;SDS011;17381;51.690;5.270;2023-04-30T00:55:56;8.15;;;5.28;;
30613;SDS011;17381;51.690;5.270;2023-04-30T00:58:50;10.20;;;6.82;;
30613;SDS011;17381;51.690;5.270;2023-04-30T01:01:24;11.45;;;6.25;;
30613;SDS011;17381;51.690;5.270;2023-04-30T01:04:09;12.52;;;7.30;;
30613;SDS011;17381;51.690;5.270;2023-04-30T01:06:48;9.82;;;6.13;;
30613;SDS011;17381;51.690;5.270;2023-04-30T01:09:35;12.13;;;6.30;;
30613;SDS011;17381;51.690;5.270;2023-04-30T01:12:30;11.10;;;6.38;;
30613;SDS011;17381;51.690;5.270;2023-04-30T01:22:40;14.25;;;8.00;;
30613;SDS011;17381;51.690;5.270;2023-04-30T01:51:50;14.15;;;6.72;;
30613;SDS011;17381;51.690;5.270;2023-04-30T01:58:36;11.45;;;7.22;;
30613;SDS011;17381;51.690;5.270;2023-04-30T02:01:38;12.60;;;7.90;;
30613;SDS011;17381;51.690;5.270;2023-04-30T02:04:10;10.77;;;6.72;;
30613;SDS011;17381;51.690;5.270;2023-04-30T02:07:05;11.30;;;7.85;;
30613;SDS011;17381;51.690;5.270;2023-04-30T02:09:39;11.75;;;7.45;;
30613;SDS011;17381;51.690;5.270;2023-04-30T02:12:32;12.82;;;6.75;;
30613;SDS011;17381;51.690;5.270;2023-04-30T02:27:55;10.50;;;6.45;;
30613;SDS011;17381;51.690;5.270;2023-04-30T02:31:07;11.82;;;6.95;;
30613;SDS011;17381;51.690;5.270;2023-04-30T02:44:32;10.60;;;6.85;;
30613;SDS011;17381;51.690;5.270;2023-04-30T02:47:32;11.07;;;6.43;;
30613;SDS011;17381;51.690;5.270;2023-04-30T02:50:01;11.27;;;7.05;;
30613;SDS011;17381;51.690;5.270;2023-04-30T02:53:04;12.77;;;7.30;;
30613;SDS011;17381;51.690;5.270;2023-04-30T02:55:48;13.55;;;7.75;;
30613;SDS011;17381;51.690;5.270;2023-04-30T02:58:44;12.55;;;7.32;;
30613;SDS011;17381;51.690;5.270;2023-04-30T03:01:19;12.75;;;7.63;;
30613;SDS011;17381;51.690;5.270;2023-04-30T03:04:15;15.48;;;9.38;;
30613;SDS011;17381;51.690;5.270;2023-04-30T03:06:49;12.18;;;7.07;;
30613;SDS011;17381;51.690;5.270;2023-04-30T03:09:21;11.05;;;7.28;;
30613;SDS011;17381;51.690;5.270;2023-04-30T03:12:32;9.88;;;6.80;;
30613;SDS011;17381;51.690;5.270;2023-04-30T03:27:02;12.35;;;6.88;;
30613;SDS011;17381;51.690;5.270;2023-04-30T03:30:01;11.60;;;6.80;;
30613;SDS011;17381;51.690;5.270;2023-04-30T03:33:00;10.48;;;6.82;;
30613;SDS011;17381;51.690;5.270;2023-04-30T03:35:51;13.25;;;7.82;;
30613;SDS011;17381;51.690;5.270;2023-04-30T03:38:26;12.55;;;7.32;;
30613;SDS011;17381;51.690;5.270;2023-04-30T03:41:03;11.88;;;6.93;;
30613;SDS011;17381;51.690;5.270;2023-04-30T03:44:16;12.82;;;7.25;;
30613;SDS011;17381;51.690;5.270;2023-04-30T03:50:09;13.95;;;7.93;;
30613;SDS011;17381;51.690;5.270;2023-04-30T03:53:01;10.73;;;6.57;;
30613;SDS011;17381;51.690;5.270;2023-04-30T03:55:33;13.60;;;7.88;;
30613;SDS011;17381;51.690;5.270;2023-04-30T03:58:15;10.90;;;6.63;;
30613;SDS011;17381;51.690;5.270;2023-04-30T04:01:00;12.00;;;7.40;;
30613;SDS011;17381;51.690;5.270;2023-04-30T04:04:01;13.30;;;6.70;;
30613;SDS011;17381;51.690;5.270;2023-04-30T04:06:34;10.30;;;6.55;;
30613;SDS011;17381;51.690;5.270;2023-04-30T04:09:28;10.48;;;6.70;;
30613;SDS011;17381;51.690;5.270;2023-04-30T04:12:05;11.10;;;6.55;;
30613;SDS011;17381;51.690;5.270;2023-04-30T04:15:14;10.88;;;6.35;;
30613;SDS011;17381;51.690;5.270;2023-04-30T04:22:35;14.05;;;7.43;;
30613;SDS011;17381;51.690;5.270;2023-04-30T04:25:37;11.77;;;6.90;;
30613;SDS011;17381;51.690;5.270;2023-04-30T04:36:44;11.80;;;6.47;;
30613;SDS011;17381;51.690;5.270;2023-04-30T04:56:57;11.55;;;7.53;;
30613;SDS011;17381;51.690;5.270;2023-04-30T04:59:27;13.38;;;8.20;;
30613;SDS011;17381;51.690;5.270;2023-04-30T05:05:15;12.65;;;8.48;;
30613;SDS011;17381;51.690;5.270;2023-04-30T05:08:00;15.88;;;8.25;;
30613;SDS011;17381;51.690;5.270;2023-04-30T05:11:01;12.07;;;7.82;;
30613;SDS011;17381;51.690;5.270;2023-04-30T05:47:28;13.60;;;8.73;;
30613;SDS011;17381;51.690;5.270;2023-04-30T05:56:37;12.48;;;8.25;;
30613;SDS011;17381;51.690;5.270;2023-04-30T05:59:13;14.02;;;8.23;;
30613;SDS011;17381;51.690;5.270;2023-04-30T06:02:24;15.30;;;8.95;;
30613;SDS011;17381;51.690;5.270;2023-04-30T06:05:29;12.60;;;8.77;;
30613;SDS011;17381;51.690;5.270;2023-04-30T06:08:01;10.52;;;7.85;;
30613;SDS011;17381;51.690;5.270;2023-04-30T06:10:56;12.63;;;7.82;;
30613;SDS011;17381;51.690;5.270;2023-04-30T06:14:16;15.07;;;8.10;;
30613;SDS011;17381;51.690;5.270;2023-04-30T06:28:32;12.15;;;7.47;;
30613;SDS011;17381;51.690;5.270;2023-04-30T06:31:23;11.65;;;7.93;;
30613;SDS011;17381;51.690;5.270;2023-04-30T06:34:00;11.43;;;7.68;;
30613;SDS011;17381;51.690;5.270;2023-04-30T06:46:31;12.85;;;7.78;;
30613;SDS011;17381;51.690;5.270;2023-04-30T06:49:04;12.43;;;8.25;;
30613;SDS011;17381;51.690;5.270;2023-04-30T07:01:42;12.38;;;8.15;;
30613;SDS011;17381;51.690;5.270;2023-04-30T07:12:18;13.45;;;7.63;;
30613;SDS011;17381;51.690;5.270;2023-04-30T07:15:01;12.18;;;7.25;;
30613;SDS011;17381;51.690;5.270;2023-04-30T07:23:57;13.98;;;8.23;;
30613;SDS011;17381;51.690;5.270;2023-04-30T07:34:16;14.48;;;9.40;;
30613;SDS011;17381;51.690;5.270;2023-04-30T07:37:02;11.95;;;8.02;;
30613;SDS011;17381;51.690;5.270;2023-04-30T07:39:59;10.98;;;7.90;;
30613;SDS011;17381;51.690;5.270;2023-04-30T07:42:25;9.98;;;6.85;;
30613;SDS011;17381;51.690;5.270;2023-04-30T07:45:17;11.27;;;7.25;;
30613;SDS011;17381;51.690;5.270;2023-04-30T07:47:48;12.95;;;7.95;;
30613;SDS011;17381;51.690;5.270;2023-04-30T07:50:29;9.65;;;6.95;;
30613;SDS011;17381;51.690;5.270;2023-04-30T07:53:28;12.50;;;6.65;;
30613;SDS011;17381;51.690;5.270;2023-04-30T07:56:03;13.07;;;7.38;;
30613;SDS011;17381;51.690;5.270;2023-04-30T07:59:04;11.13;;;7.47;;
30613;SDS011;17381;51.690;5.270;2023-04-30T08:02:04;11.23;;;7.68;;
30613;SDS011;17381;51.690;5.270;2023-04-30T08:04:50;13.77;;;7.65;;
30613;SDS011;17381;51.690;5.270;2023-04-30T08:07:46;10.73;;;6.45;;
30613;SDS011;17381;51.690;5.270;2023-04-30T08:10:28;14.50;;;7.45;;
30613;SDS011;17381;51.690;5.270;2023-04-30T08:13:05;12.65;;;8.50;;
30613;SDS011;17381;51.690;5.270;2023-04-30T08:15:47;14.40;;;8.25;;
30613;SDS011;17381;51.690;5.270;2023-04-30T08:19:35;13.00;;;7.55;;
30613;SDS011;17381;51.690;5.270;2023-04-30T08:26:25;10.02;;;7.32;;
30613;SDS011;17381;51.690;5.270;2023-04-30T08:29:07;10.68;;;7.07;;
30613;SDS011;17381;51.690;5.270;2023-04-30T08:32:35;11.57;;;7.55;;
30613;SDS011;17381;51.690;5.270;2023-04-30T08:35:24;11.27;;;8.07;;
30613;SDS011;17381;51.690;5.270;2023-04-30T08:38:19;12.05;;;8.02;;
30613;SDS011;17381;51.690;5.270;2023-04-30T08:41:17;10.25;;;6.82;;
30613;SDS011;17381;51.690;5.270;2023-04-30T08:44:35;13.57;;;7.85;;
30613;SDS011;17381;51.690;5.270;2023-04-30T08:54:46;13.02;;;8.35;;
30613;SDS011;17381;51.690;5.270;2023-04-30T08:58:06;11.13;;;7.47;;
30613;SDS011;17381;51.690;5.270;2023-04-30T09:00:57;8.88;;;6.38;;
30613;SDS011;17381;51.690;5.270;2023-04-30T09:04:14;11.40;;;6.50;;
30613;SDS011;17381;51.690;5.270;2023-04-30T09:06:42;10.40;;;6.85;;
30613;SDS011;17381;51.690;5.270;2023-04-30T09:09:20;10.77;;;6.70;;
30613;SDS011;17381;51.690;5.270;2023-04-30T09:12:16;11.07;;;6.05;;
30613;SDS011;17381;51.690;5.270;2023-04-30T09:15:15;8.15;;;5.65;;
30613;SDS011;17381;51.690;5.270;2023-04-30T09:17:47;9.27;;;6.15;;
30613;SDS011;17381;51.690;5.270;2023-04-30T09:21:04;9.23;;;5.95;;
30613;SDS011;17381;51.690;5.270;2023-04-30T09:24:09;9.40;;;6.30;;
30613;SDS011;17381;51.690;5.270;2023-04-30T09:30:00;9.23;;;5.57;;
30613;SDS011;17381;51.690;5.270;2023-04-30T09:33:00;7.82;;;5.78;;
30613;SDS011;17381;51.690;5.270;2023-04-30T09:35:55;11.68;;;5.40;;
30613;SDS011;17381;51.690;5.270;2023-04-30T09:39:10;8.73;;;5.22;;
30613;SDS011;17381;51.690;5.270;2023-04-30T09:42:13;8.93;;;5.45;;
30613;SDS011;17381;51.690;5.270;2023-04-30T09:44:51;8.40;;;5.43;;
30613;SDS011;17381;51.690;5.270;2023-04-30T09:47:44;7.90;;;4.95;;
30613;SDS011;17381;51.690;5.270;2023-04-30T09:50:12;10.15;;;4.75;;
30613;SDS011;17381;51.690;5.270;2023-04-30T09:52:46;8.57;;;5.68;;
30613;SDS011;17381;51.690;5.270;2023-04-30T09:55:44;9.52;;;5.30;;
30613;SDS011;17381;51.690;5.270;2023-04-30T09:58:12;7.93;;;4.73;;
30613;SDS011;17381;51.690;5.270;2023-04-30T10:00:51;8.32;;;4.95;;
30613;SDS011;17381;51.690;5.270;2023-04-30T10:03:53;7.75;;;4.78;;
30613;SDS011;17381;51.690;5.270;2023-04-30T10:06:25;7.20;;;4.88;;
30613;SDS011;17381;51.690;5.270;2023-04-30T10:09:16;7.22;;;4.40;;
30613;SDS011;17381;51.690;5.270;2023-04-30T10:12:15;10.00;;;5.55;;
30613;SDS011;17381;51.690;5.270;2023-04-30T10:15:39;6.93;;;4.78;;
30613;SDS011;17381;51.690;5.270;2023-04-30T10:19:05;8.10;;;4.68;;
30613;SDS011;17381;51.690;5.270;2023-04-30T10:21:52;8.82;;;5.40;;
30613;SDS011;17381;51.690;5.270;2023-04-30T10:24:53;7.97;;;4.82;;
30613;SDS011;17381;51.690;5.270;2023-04-30T10:28:04;8.48;;;4.65;;
30613;SDS011;17381;51.690;5.270;2023-04-30T10:31:12;9.07;;;5.55;;
30613;SDS011;17381;51.690;5.270;2023-04-30T10:41:26;7.68;;;4.85;;
30613;SDS011;17381;51.690;5.270;2023-04-30T10:44:23;6.47;;;4.10;;
30613;SDS011;17381;51.690;5.270;2023-04-30T10:47:19;6.28;;;4.22;;
30613;SDS011;17381;51.690;5.270;2023-04-30T10:50:10;7.30;;;4.53;;
30613;SDS011;17381;51.690;5.270;2023-04-30T10:53:06;5.22;;;3.30;;
30613;SDS011;17381;51.690;5.270;2023-04-30T10:55:47;5.78;;;2.97;;
30613;SDS011;17381;51.690;5.270;2023-04-30T10:59:00;4.90;;;3.30;;
30613;SDS011;17381;51.690;5.270;2023-04-30T11:02:00;7.13;;;3.67;;
30613;SDS011;17381;51.690;5.270;2023-04-30T11:08:13;7.22;;;4.15;;
30613;SDS011;17381;51.690;5.270;2023-04-30T11:11:10;4.85;;;3.13;;
30613;SDS011;17381;51.690;5.270;2023-04-30T11:13:59;6.88;;;3.42;;
30613;SDS011;17381;51.690;5.270;2023-04-30T11:16:41;4.75;;;3.20;;
30613;SDS011;17381;51.690;5.270;2023-04-30T11:19:22;5.13;;;3.42;;
30613;SDS011;17381;51.690;5.270;2023-04-30T11:25:23;6.32;;;3.30;;
30613;SDS011;17381;51.690;5.270;2023-04-30T11:28:30;11.27;;;2.85;;
30613;SDS011;17381;51.690;5.270;2023-04-30T11:31:21;5.45;;;3.03;;
30613;SDS011;17381;51.690;5.270;2023-04-30T11:34:18;5.15;;;3.05;;
30613;SDS011;17381;51.690;5.270;2023-04-30T11:37:11;5.60;;;2.58;;
30613;SDS011;17381;51.690;5.270;2023-04-30T11:40:18;4.90;;;2.35;;
30613;SDS011;17381;51.690;5.270;2023-04-30T11:42:55;4.28;;;2.42;;
30613;SDS011;17381;51.690;5.270;2023-04-30T11:49:30;3.53;;;2.13;;
30613;SDS011;17381;51.690;5.270;2023-04-30T11:52:05;4.35;;;2.45;;
30613;SDS011;17381;51.690;5.270;2023-04-30T11:54:52;4.55;;;2.45;;
30613;SDS011;17381;51.690;5.270;2023-04-30T11:58:25;5.17;;;3.10;;
30613;SDS011;17381;51.690;5.270;2023-04-30T12:04:17;6.40;;;3.75;;
30613;SDS011;17381;51.690;5.270;2023-04-30T12:07:18;3.58;;;2.17;;
30613;SDS011;17381;51.690;5.270;2023-04-30T12:09:55;6.60;;;3.42;;
30613;SDS011;17381;51.690;5.270;2023-04-30T12:12:44;6.15;;;3.88;;
30613;SDS011;17381;51.690;5.270;2023-04-30T12:16:02;6.57;;;4.10;;
30613;SDS011;17381;51.690;5.270;2023-04-30T12:18:28;5.25;;;3.28;;
30613;SDS011;17381;51.690;5.270;2023-04-30T12:21:46;5.75;;;3.42;;
30613;SDS011;17381;51.690;5.270;2023-04-30T12:24:56;4.30;;;2.50;;
30613;SDS011;17381;51.690;5.270;2023-04-30T12:28:35;3.67;;;2.00;;
30613;SDS011;17381;51.690;5.270;2023-04-30T12:31:32;4.40;;;2.20;;
30613;SDS011;17381;51.690;5.270;2023-04-30T12:37:25;5.30;;;3.17;;
30613;SDS011;17381;51.690;5.270;2023-04-30T12:40:25;6.50;;;3.50;;
30613;SDS011;17381;51.690;5.270;2023-04-30T12:43:34;5.13;;;3.35;;
30613;SDS011;17381;51.690;5.270;2023-04-30T12:49:50;4.35;;;2.67;;
30613;SDS011;17381;51.690;5.270;2023-04-30T12:52:36;3.03;;;1.85;;
30613;SDS011;17381;51.690;5.270;2023-04-30T12:55:26;3.47;;;2.00;;
30613;SDS011;17381;51.690;5.270;2023-04-30T12:58:29;3.63;;;2.03;;
30613;SDS011;17381;51.690;5.270;2023-04-30T13:01:26;3.88;;;1.98;;
30613;SDS011;17381;51.690;5.270;2023-04-30T13:04:28;2.97;;;1.92;;
30613;SDS011;17381;51.690;5.270;2023-04-30T13:10:52;4.50;;;2.65;;
30613;SDS011;17381;51.690;5.270;2023-04-30T13:13:57;3.28;;;1.95;;
30613;SDS011;17381;51.690;5.270;2023-04-30T13:16:52;3.22;;;1.83;;
30613;SDS011;17381;51.690;5.270;2023-04-30T13:19:58;3.72;;;1.50;;
30613;SDS011;17381;51.690;5.270;2023-04-30T13:22:25;2.42;;;1.30;;
30613;SDS011;17381;51.690;5.270;2023-04-30T13:25:12;2.75;;;1.30;;
30613;SDS011;17381;51.690;5.270;2023-04-30T13:28:27;3.20;;;1.33;;
30613;SDS011;17381;51.690;5.270;2023-04-30T13:31:33;3.97;;;1.67;;
30613;SDS011;17381;51.690;5.270;2023-04-30T13:34:32;6.65;;;2.10;;
30613;SDS011;17381;51.690;5.270;2023-04-30T13:37:31;2.80;;;1.42;;
30613;SDS011;17381;51.690;5.270;2023-04-30T13:40:10;4.50;;;2.08;;
30613;SDS011;17381;51.690;5.270;2023-04-30T13:46:25;2.78;;;1.33;;
30613;SDS011;17381;51.690;5.270;2023-04-30T13:49:25;4.25;;;1.50;;
30613;SDS011;17381;51.690;5.270;2023-04-30T13:52:14;2.33;;;1.33;;
30613;SDS011;17381;51.690;5.270;2023-04-30T13:57:56;2.35;;;1.30;;
30613;SDS011;17381;51.690;5.270;2023-04-30T14:00:46;3.33;;;1.48;;
30613;SDS011;17381;51.690;5.270;2023-04-30T14:03:40;2.50;;;1.40;;
30613;SDS011;17381;51.690;5.270;2023-04-30T14:06:31;2.35;;;1.17;;
30613;SDS011;17381;51.690;5.270;2023-04-30T14:09:35;2.78;;;1.48;;
30613;SDS011;17381;51.690;5.270;2023-04-30T14:12:33;3.00;;;1.47;;
30613;SDS011;17381;51.690;5.270;2023-04-30T14:15:42;3.17;;;1.45;;
30613;SDS011;17381;51.690;5.270;2023-04-30T14:18:42;1.90;;;0.98;;
30613;SDS011;17381;51.690;5.270;2023-04-30T14:21:35;2.78;;;1.38;;
30613;SDS011;17381;51.690;5.270;2023-04-30T14:24:40;4.10;;;1.50;;
30613;SDS011;17381;51.690;5.270;2023-04-30T14:27:31;2.97;;;1.52;;
30613;SDS011;17381;51.690;5.270;2023-04-30T14:30:08;2.05;;;1.00;;
30613;SDS011;17381;51.690;5.270;2023-04-30T14:32:40;1.70;;;0.90;;
30613;SDS011;17381;51.690;5.270;2023-04-30T14:35:48;3.03;;;1.30;;
30613;SDS011;17381;51.690;5.270;2023-04-30T14:38:55;2.42;;;1.20;;
30613;SDS011;17381;51.690;5.270;2023-04-30T14:42:10;4.00;;;1.50;;
30613;SDS011;17381;51.690;5.270;2023-04-30T14:45:15;3.40;;;1.20;;
30613;SDS011;17381;51.690;5.270;2023-04-30T14:48:01;2.63;;;1.20;;
30613;SDS011;17381;51.690;5.270;2023-04-30T14:50:57;2.75;;;1.45;;
30613;SDS011;17381;51.690;5.270;2023-04-30T14:53:52;2.67;;;1.40;;
30613;SDS011;17381;51.690;5.270;2023-04-30T14:57:06;4.18;;;1.40;;
30613;SDS011;17381;51.690;5.270;2023-04-30T14:59:58;3.40;;;1.20;;
30613;SDS011;17381;51.690;5.270;2023-04-30T15:03:06;3.67;;;1.20;;
30613;SDS011;17381;51.690;5.270;2023-04-30T15:06:13;1.88;;;1.08;;
30613;SDS011;17381;51.690;5.270;2023-04-30T15:09:05;4.90;;;1.58;;
30613;SDS011;17381;51.690;5.270;2023-04-30T15:12:09;2.22;;;1.10;;
30613;SDS011;17381;51.690;5.270;2023-04-30T15:15:07;4.18;;;1.50;;
30613;SDS011;17381;51.690;5.270;2023-04-30T15:17:54;1.80;;;1.00;;
30613;SDS011;17381;51.690;5.270;2023-04-30T15:20:41;2.47;;;1.27;;
30613;SDS011;17381;51.690;5.270;2023-04-30T15:23:17;4.90;;;1.30;;
30613;SDS011;17381;51.690;5.270;2023-04-30T15:26:11;3.08;;;1.35;;
30613;SDS011;17381;51.690;5.270;2023-04-30T15:29:30;3.90;;;1.25;;
30613;SDS011;17381;51.690;5.270;2023-04-30T15:32:10;2.53;;;1.33;;
30613;SDS011;17381;51.690;5.270;2023-04-30T15:35:08;2.88;;;1.33;;
30613;SDS011;17381;51.690;5.270;2023-04-30T15:41:31;3.67;;;1.52;;
30613;SDS011;17381;51.690;5.270;2023-04-30T15:44:00;2.67;;;1.10;;
30613;SDS011;17381;51.690;5.270;2023-04-30T15:46:41;2.72;;;1.38;;
30613;SDS011;17381;51.690;5.270;2023-04-30T15:49:51;3.00;;;1.10;;
30613;SDS011;17381;51.690;5.270;2023-04-30T15:52:34;2.85;;;1.20;;
30613;SDS011;17381;51.690;5.270;2023-04-30T15:56:05;3.15;;;1.00;;
30613;SDS011;17381;51.690;5.270;2023-04-30T15:59:33;3.13;;;1.02;;
30613;SDS011;17381;51.690;5.270;2023-04-30T16:02:36;2.85;;;1.10;;
30613;SDS011;17381;51.690;5.270;2023-04-30T16:05:11;3.47;;;0.93;;
30613;SDS011;17381;51.690;5.270;2023-04-30T16:08:25;4.95;;;0.90;;
30613;SDS011;17381;51.690;5.270;2023-04-30T16:11:28;2.70;;;0.93;;
30613;SDS011;17381;51.690;5.270;2023-04-30T16:14:15;4.28;;;1.00;;
30613;SDS011;17381;51.690;5.270;2023-04-30T16:16:57;2.40;;;0.70;;
30613;SDS011;17381;51.690;5.270;2023-04-30T16:20:25;1.90;;;0.98;;
30613;SDS011;17381;51.690;5.270;2023-04-30T16:23:18;3.85;;;1.25;;
30613;SDS011;17381;51.690;5.270;2023-04-30T16:26:14;1.70;;;0.80;;
30613;SDS011;17381;51.690;5.270;2023-04-30T16:29:25;2.97;;;1.15;;
30613;SDS011;17381;51.690;5.270;2023-04-30T16:32:19;2.00;;;0.80;;
30613;SDS011;17381;51.690;5.270;2023-04-30T16:35:29;2.53;;;0.85;;
30613;SDS011;17381;51.690;5.270;2023-04-30T16:38:13;1.80;;;0.90;;
30613;SDS011;17381;51.690;5.270;2023-04-30T16:41:22;2.33;;;1.00;;
30613;SDS011;17381;51.690;5.270;2023-04-30T16:44:10;2.20;;;0.77;;
30613;SDS011;17381;51.690;5.270;2023-04-30T16:46:55;2.33;;;0.80;;
30613;SDS011;17381;51.690;5.270;2023-04-30T16:49:53;2.75;;;0.80;;
30613;SDS011;17381;51.690;5.270;2023-04-30T16:59:47;1.83;;;0.60;;
30613;SDS011;17381;51.690;5.270;2023-04-30T17:02:19;3.50;;;0.90;;
30613;SDS011;17381;51.690;5.270;2023-04-30T17:05:30;1.67;;;0.70;;
30613;SDS011;17381;51.690;5.270;2023-04-30T17:08:17;2.55;;;0.77;;
30613;SDS011;17381;51.690;5.270;2023-04-30T17:11:14;3.17;;;0.70;;
30613;SDS011;17381;51.690;5.270;2023-04-30T17:14:27;1.73;;;0.70;;
30613;SDS011;17381;51.690;5.270;2023-04-30T17:17:37;5.63;;;1.00;;
30613;SDS011;17381;51.690;5.270;2023-04-30T17:20:23;2.38;;;0.80;;
30613;SDS011;17381;51.690;5.270;2023-04-30T17:23:40;1.48;;;0.60;;
30613;SDS011;17381;51.690;5.270;2023-04-30T17:26:17;2.28;;;0.80;;
30613;SDS011;17381;51.690;5.270;2023-04-30T17:29:32;2.20;;;1.00;;
30613;SDS011;17381;51.690;5.270;2023-04-30T17:32:55;2.85;;;1.10;;
30613;SDS011;17381;51.690;5.270;2023-04-30T17:35:51;1.67;;;0.80;;
30613;SDS011;17381;51.690;5.270;2023-04-30T17:38:57;2.45;;;0.73;;
30613;SDS011;17381;51.690;5.270;2023-04-30T17:41:41;2.85;;;0.80;;
30613;SDS011;17381;51.690;5.270;2023-04-30T17:44:08;1.73;;;0.70;;
30613;SDS011;17381;51.690;5.270;2023-04-30T17:47:14;2.40;;;0.90;;
30613;SDS011;17381;51.690;5.270;2023-04-30T17:50:14;3.85;;;1.50;;
30613;SDS011;17381;51.690;5.270;2023-04-30T17:53:10;3.17;;;1.10;;
30613;SDS011;17381;51.690;5.270;2023-04-30T17:55:59;2.97;;;0.90;;
30613;SDS011;17381;51.690;5.270;2023-04-30T17:58:32;2.10;;;0.73;;
30613;SDS011;17381;51.690;5.270;2023-04-30T18:01:31;2.40;;;1.02;;
30613;SDS011;17381;51.690;5.270;2023-04-30T18:04:26;1.88;;;0.60;;
30613;SDS011;17381;51.690;5.270;2023-04-30T18:07:27;1.70;;;0.60;;
30613;SDS011;17381;51.690;5.270;2023-04-30T18:10:12;1.73;;;0.70;;
30613;SDS011;17381;51.690;5.270;2023-04-30T18:13:01;2.13;;;0.80;;
30613;SDS011;17381;51.690;5.270;2023-04-30T18:16:07;2.40;;;0.77;;
30613;SDS011;17381;51.690;5.270;2023-04-30T18:18:51;1.75;;;0.88;;
30613;SDS011;17381;51.690;5.270;2023-04-30T18:21:34;2.58;;;0.75;;
30613;SDS011;17381;51.690;5.270;2023-04-30T18:24:35;2.50;;;0.50;;
30613;SDS011;17381;51.690;5.270;2023-04-30T18:30:37;3.40;;;0.80;;
30613;SDS011;17381;51.690;5.270;2023-04-30T18:33:26;3.67;;;0.57;;
30613;SDS011;17381;51.690;5.270;2023-04-30T18:36:24;1.83;;;0.65;;
30613;SDS011;17381;51.690;5.270;2023-04-30T18:39:17;2.97;;;0.70;;
30613;SDS011;17381;51.690;5.270;2023-04-30T18:41:58;1.67;;;0.47;;
30613;SDS011;17381;51.690;5.270;2023-04-30T18:44:36;2.03;;;0.63;;
30613;SDS011;17381;51.690;5.270;2023-04-30T18:47:27;1.85;;;0.57;;
30613;SDS011;17381;51.690;5.270;2023-04-30T18:50:09;2.50;;;0.70;;
30613;SDS011;17381;51.690;5.270;2023-04-30T18:52:56;2.20;;;0.65;;
30613;SDS011;17381;51.690;5.270;2023-04-30T18:55:54;2.97;;;1.10;;
30613;SDS011;17381;51.690;5.270;2023-04-30T18:59:16;1.70;;;0.60;;
30613;SDS011;17381;51.690;5.270;2023-04-30T19:02:03;2.25;;;0.60;;
30613;SDS011;17381;51.690;5.270;2023-04-30T19:07:47;2.00;;;0.50;;
30613;SDS011;17381;51.690;5.270;2023-04-30T19:10:35;2.58;;;0.70;;
30613;SDS011;17381;51.690;5.270;2023-04-30T19:13:43;1.52;;;0.60;;
30613;SDS011;17381;51.690;5.270;2023-04-30T19:16:29;2.15;;;0.70;;
30613;SDS011;17381;51.690;5.270;2023-04-30T19:19:51;3.60;;;1.05;;
30613;SDS011;17381;51.690;5.270;2023-04-30T19:23:21;1.85;;;0.50;;
30613;SDS011;17381;51.690;5.270;2023-04-30T19:26:27;2.65;;;0.80;;
30613;SDS011;17381;51.690;5.270;2023-04-30T19:29:20;3.70;;;1.00;;
30613;SDS011;17381;51.690;5.270;2023-04-30T19:32:12;3.78;;;0.98;;
30613;SDS011;17381;51.690;5.270;2023-04-30T19:38:34;2.08;;;0.65;;
30613;SDS011;17381;51.690;5.270;2023-04-30T19:41:17;2.97;;;0.90;;
30613;SDS011;17381;51.690;5.270;2023-04-30T19:44:01;2.08;;;0.88;;
30613;SDS011;17381;51.690;5.270;2023-04-30T19:46:45;3.20;;;1.08;;
30613;SDS011;17381;51.690;5.270;2023-04-30T19:49:17;3.13;;;0.70;;
30613;SDS011;17381;51.690;5.270;2023-04-30T19:52:36;2.47;;;0.70;;
30613;SDS011;17381;51.690;5.270;2023-04-30T19:55:11;1.90;;;0.60;;
30613;SDS011;17381;51.690;5.270;2023-04-30T19:57:49;3.25;;;0.80;;
30613;SDS011;17381;51.690;5.270;2023-04-30T20:00:41;1.50;;;0.63;;
30613;SDS011;17381;51.690;5.270;2023-04-30T20:03:29;2.13;;;0.60;;
30613;SDS011;17381;51.690;5.270;2023-04-30T20:06:06;1.67;;;0.65;;
30613;SDS011;17381;51.690;5.270;2023-04-30T20:08:58;1.92;;;0.68;;
30613;SDS011;17381;51.690;5.270;2023-04-30T20:11:51;3.05;;;0.90;;
30613;SDS011;17381;51.690;5.270;2023-04-30T20:14:47;2.80;;;0.90;;
30613;SDS011;17381;51.690;5.270;2023-04-30T20:17:57;1.67;;;0.65;;
30613;SDS011;17381;51.690;5.270;2023-04-30T20:23:51;3.78;;;1.10;;
30613;SDS011;17381;51.690;5.270;2023-04-30T20:26:43;2.03;;;0.70;;
30613;SDS011;17381;51.690;5.270;2023-04-30T20:29:35;2.00;;;0.80;;
30613;SDS011;17381;51.690;5.270;2023-04-30T20:32:40;2.22;;;0.95;;
30613;SDS011;17381;51.690;5.270;2023-04-30T20:35:47;2.08;;;0.80;;
30613;SDS011;17381;51.690;5.270;2023-04-30T20:38:24;1.60;;;0.70;;
30613;SDS011;17381;51.690;5.270;2023-04-30T20:41:08;2.28;;;0.90;;
30613;SDS011;17381;51.690;5.270;2023-04-30T20:46:50;2.13;;;0.55;;
30613;SDS011;17381;51.690;5.270;2023-04-30T20:49:23;2.35;;;0.73;;
30613;SDS011;17381;51.690;5.270;2023-04-30T20:51:54;2.58;;;1.00;;
30613;SDS011;17381;51.690;5.270;2023-04-30T20:54:33;1.95;;;0.80;;
30613;SDS011;17381;51.690;5.270;2023-04-30T20:57:26;2.25;;;0.80;;
30613;SDS011;17381;51.690;5.270;2023-04-30T21:00:02;2.50;;;0.82;;
30613;SDS011;17381;51.690;5.270;2023-04-30T21:02:36;1.67;;;0.80;;
30613;SDS011;17381;51.690;5.270;2023-04-30T21:05:24;2.70;;;0.95;;
30613;SDS011;17381;51.690;5.270;2023-04-30T21:08:09;3.60;;;0.80;;
30613;SDS011;17381;51.690;5.270;2023-04-30T21:11:12;2.63;;;0.90;;
30613;SDS011;17381;51.690;5.270;2023-04-30T21:14:06;2.05;;;0.70;;
30613;SDS011;17381;51.690;5.270;2023-04-30T21:17:04;2.15;;;0.95;;
30613;SDS011;17381;51.690;5.270;2023-04-30T21:19:51;2.75;;;1.08;;
30613;SDS011;17381;51.690;5.270;2023-04-30T21:22:32;2.33;;;0.98;;
30613;SDS011;17381;51.690;5.270;2023-04-30T21:25:09;3.28;;;1.38;;
30613;SDS011;17381;51.690;5.270;2023-04-30T21:27:55;3.10;;;0.82;;
30613;SDS011;17381;51.690;5.270;2023-04-30T21:30:35;2.58;;;1.10;;
30613;SDS011;17381;51.690;5.270;2023-04-30T21:33:37;3.38;;;1.02;;
30613;SDS011;17381;51.690;5.270;2023-04-30T21:36:29;5.50;;;1.45;;
30613;SDS011;17381;51.690;5.270;2023-04-30T21:42:37;2.72;;;1.02;;
30613;SDS011;17381;51.690;5.270;2023-04-30T21:45:11;3.67;;;1.03;;
30613;SDS011;17381;51.690;5.270;2023-04-30T21:47:49;3.85;;;1.20;;
30613;SDS011;17381;51.690;5.270;2023-04-30T21:50:53;4.40;;;1.20;;
30613;SDS011;17381;51.690;5.270;2023-04-30T21:54:12;4.68;;;1.10;;
30613;SDS011;17381;51.690;5.270;2023-04-30T21:57:26;4.82;;;1.35;;
30613;SDS011;17381;51.690;5.270;2023-04-30T22:00:24;4.55;;;1.10;;
30613;SDS011;17381;51.690;5.270;2023-04-30T22:03:58;2.90;;;1.08;;
30613;SDS011;17381;51.690;5.270;2023-04-30T22:12:54;4.78;;;1.45;;
30613;SDS011;17381;51.690;5.270;2023-04-30T22:15:56;4.20;;;1.40;;
30613;SDS011;17381;51.690;5.270;2023-04-30T22:18:50;3.40;;;1.30;;
30613;SDS011;17381;51.690;5.270;2023-04-30T22:21:53;5.60;;;1.27;;
30613;SDS011;17381;51.690;5.270;2023-04-30T22:24:55;3.75;;;1.35;;
30613;SDS011;17381;51.690;5.270;2023-04-30T22:27:52;2.95;;;1.33;;
30613;SDS011;17381;51.690;5.270;2023-04-30T22:31:14;4.10;;;1.30;;